createdAt,value
2019-05-13T00:03:47.019Z,37.2
2019-05-13T00:08:47.711Z,37.2
2019-05-13T00:13:49.119Z,37.2
2019-05-13T00:18:49.744Z,37.2
2019-05-13T00:23:53.426Z,37.1
2019-05-13T00:28:55.177Z,37.1
2019-05-13T00:33:56.823Z,37.1
2019-05-13T00:38:58.427Z,37
2019-05-13T00:44:00.074Z,37
2019-05-13T00:49:01.694Z,36.9
2019-05-13T00:54:04.288Z,36.9
2019-05-13T00:59:06.083Z,36.9
2019-05-13T01:04:07.712Z,36.8
2019-05-13T01:09:09.350Z,36.8
2019-05-13T01:14:11.221Z,36.7
2019-05-13T01:19:14.296Z,36.7
2019-05-13T01:24:16.174Z,36.7
2019-05-13T01:29:17.809Z,36.6
2019-05-13T01:34:19.455Z,36.6
2019-05-13T01:39:21.100Z,36.6
2019-05-13T01:44:24.345Z,36.6
2019-05-13T01:49:26.178Z,36.5
2019-05-13T01:54:27.799Z,36.4
2019-05-13T01:59:29.446Z,36.4
2019-05-13T02:04:33.370Z,36.4
2019-05-13T02:09:35.235Z,36.4
2019-05-13T02:14:36.861Z,36.3
2019-05-13T02:19:38.522Z,36.2
2019-05-13T02:24:40.118Z,36.2
2019-05-13T02:29:43.604Z,36.2
2019-05-13T02:34:45.426Z,36.2
2019-05-13T02:39:47.035Z,36.1
2019-05-13T02:44:48.652Z,36.1
2019-05-13T02:49:53.031Z,36.1
2019-05-13T02:54:54.888Z,36
2019-05-13T02:59:56.491Z,36
2019-05-13T03:04:58.119Z,36
2019-05-13T03:10:03.728Z,35.9
2019-05-13T03:15:05.761Z,35.9
2019-05-13T03:20:11.720Z,35.9
2019-05-13T03:25:17.422Z,35.8
2019-05-13T03:30:24.225Z,35.8
2019-05-13T03:35:27.990Z,35.7
2019-05-13T03:40:32.669Z,35.7
2019-05-13T03:45:34.538Z,35.7
2019-05-13T03:50:36.146Z,35.7
2019-05-13T03:55:37.726Z,35.6
2019-05-13T04:00:42.279Z,35.6
2019-05-13T04:05:44.185Z,35.6
2019-05-13T04:10:45.786Z,35.5
2019-05-13T04:15:47.369Z,35.5
2019-05-13T04:20:48.959Z,35.5
2019-05-13T04:25:53.610Z,35.4
2019-05-13T04:30:55.498Z,35.4
2019-05-13T04:35:57.066Z,35.4
2019-05-13T04:40:58.630Z,35.3
2019-05-13T04:46:02.502Z,35.3
2019-05-13T04:51:04.337Z,35.2
2019-05-13T04:56:05.915Z,35.2
2019-05-13T05:01:08.590Z,35.2
2019-05-13T05:06:11.986Z,35.1
2019-05-13T05:11:13.743Z,35.1
2019-05-13T05:16:15.349Z,35.1
2019-05-13T05:21:16.925Z,35.1
2019-05-13T05:26:18.744Z,35
2019-05-13T05:31:20.315Z,35
2019-05-13T05:36:21.955Z,34.9
2019-05-13T05:41:23.520Z,34.9
2019-05-13T05:46:25.092Z,34.9
2019-05-13T05:51:26.651Z,34.9
2019-05-13T05:56:28.181Z,34.9
2019-05-13T06:01:29.727Z,34.8
2019-05-13T06:06:32.884Z,34.8
2019-05-13T06:11:34.682Z,34.7
2019-05-13T06:16:36.238Z,34.7
2019-05-13T06:21:37.780Z,34.7
2019-05-13T06:26:41.677Z,34.7
2019-05-13T06:31:43.525Z,34.7
2019-05-13T06:36:45.084Z,34.6
2019-05-13T06:41:46.644Z,34.6
2019-05-13T06:46:48.187Z,34.6
2019-05-13T06:51:51.957Z,34.6
2019-05-13T06:56:54.255Z,34.5
2019-05-13T07:01:55.803Z,34.5
2019-05-13T07:07:09.713Z,34.4
2019-05-13T07:12:13.896Z,34.4
2019-05-13T07:17:15.433Z,34.4
2019-05-13T07:22:16.957Z,34.4
2019-05-13T07:27:18.488Z,34.4
2019-05-13T07:32:22.071Z,34.3
2019-05-13T07:37:23.812Z,34.3
2019-05-13T07:52:38.086Z,34.2
2019-05-13T07:57:41.965Z,34.2
2019-05-13T08:02:43.796Z,34.2
2019-05-13T08:07:45.277Z,34.1
2019-05-13T08:12:47.996Z,34.1
2019-05-13T08:17:52.210Z,34.1
2019-05-13T08:22:53.131Z,34.1
2019-05-13T08:27:54.619Z,34.1
2019-05-13T08:38:02.520Z,34
2019-05-13T08:43:06.693Z,33.9
2019-05-13T08:48:08.356Z,33.9
2019-05-13T08:53:12.094Z,33.9
2019-05-13T08:58:13.877Z,33.9
2019-05-13T09:03:15.390Z,33.9
2019-05-13T09:08:16.911Z,33.8
2019-05-13T09:13:18.398Z,33.8
2019-05-13T09:18:22.366Z,33.8
2019-05-13T09:23:22.932Z,33.7
2019-05-13T09:28:24.677Z,33.7
2019-05-13T09:33:26.182Z,33.7
2019-05-13T09:38:27.694Z,33.7
2019-05-13T09:43:31.392Z,33.7
2019-05-13T09:48:33.186Z,33.6
2019-05-13T09:53:34.709Z,33.6
2019-05-13T09:58:36.215Z,33.6
2019-05-13T10:03:53.115Z,33.6
2019-05-13T10:08:55.318Z,33.6
2019-05-13T10:13:56.836Z,33.6
2019-05-13T10:18:58.352Z,33.5
2019-05-13T10:23:59.875Z,33.5
2019-05-13T10:29:01.623Z,33.4
2019-05-13T10:34:03.351Z,33.4
2019-05-13T10:39:04.872Z,33.4
2019-05-13T10:44:06.376Z,33.4
2019-05-13T10:49:07.889Z,33.4
2019-05-13T10:54:09.414Z,33.3
2019-05-13T10:59:12.540Z,33.3
2019-05-13T11:04:14.263Z,33.3
2019-05-13T11:09:15.780Z,33.3
2019-05-13T11:14:17.315Z,33.2
2019-05-13T11:19:18.825Z,33.2
2019-05-13T11:24:22.625Z,33.2
2019-05-13T11:29:24.599Z,33.2
2019-05-13T11:34:26.085Z,33.1
2019-05-13T11:39:27.611Z,33.1
2019-05-13T11:44:31.871Z,33.1
2019-05-13T11:49:32.696Z,33.1
2019-05-13T11:54:34.188Z,33.1
2019-05-13T11:59:36.221Z,33.1
2019-05-13T12:04:38.053Z,33.1
2019-05-13T12:09:39.536Z,33
2019-05-13T12:14:56.715Z,33
2019-05-13T12:20:06.569Z,33
2019-05-13T12:25:08.120Z,32.9
2019-05-13T12:30:12.008Z,32.9
2019-05-13T12:35:14.048Z,32.9
2019-05-13T12:40:15.738Z,32.9
2019-05-13T12:45:17.240Z,32.9
2019-05-13T12:50:18.746Z,32.9
2019-05-13T12:55:21.731Z,32.8
2019-05-13T13:00:23.860Z,32.8
2019-05-13T13:05:32.807Z,32.8
2019-05-13T13:10:34.792Z,32.7
2019-05-13T13:15:41.784Z,32.7
2019-05-13T13:20:43.728Z,32.7
2019-05-13T13:25:52.595Z,32.7
2019-05-13T13:30:54.619Z,32.7
2019-05-13T13:36:00.046Z,32.7
2019-05-13T13:41:03.823Z,32.6
2019-05-13T13:46:13.314Z,32.6
2019-05-13T13:51:26.323Z,32.6
2019-05-13T13:56:28.577Z,32.6
2019-05-13T14:01:33.266Z,32.6
2019-05-13T14:12:06.613Z,32.5
2019-05-13T14:17:07.677Z,32.9
2019-05-13T14:22:09.221Z,35.9
2019-05-13T14:27:12.018Z,37.5
2019-05-13T14:32:13.916Z,38.6
2019-05-13T14:37:15.636Z,39.7
2019-05-13T14:42:17.674Z,40.7
2019-05-13T14:47:18.484Z,41.6
2019-05-13T14:52:22.201Z,42.4
2019-05-13T14:57:22.504Z,43.1
2019-05-13T15:02:22.648Z,43.7
2019-05-13T15:07:22.833Z,44.2
2019-05-13T15:12:23.042Z,44.7
2019-05-13T15:17:23.287Z,45.1
2019-05-13T15:22:23.694Z,45.4
2019-05-13T15:27:23.941Z,45.8
2019-05-13T15:32:24.191Z,46
2019-05-13T15:37:25.158Z,46
2019-05-13T15:42:25.422Z,46.2
2019-05-13T15:47:26.822Z,46.2
2019-05-13T15:52:27.337Z,46.2
2019-05-13T15:57:27.609Z,46.2
2019-05-13T16:02:28.083Z,46.4
2019-05-13T16:07:28.593Z,46.4
2019-05-13T16:12:28.835Z,46.4
2019-05-13T16:17:38.629Z,46.4
2019-05-13T16:22:42.126Z,46.3
2019-05-13T16:27:42.825Z,46.3
2019-05-13T16:32:43.092Z,46.2
2019-05-13T16:37:44.055Z,46.2
2019-05-13T16:42:44.372Z,46.4
2019-05-13T16:47:56.517Z,46.7
2019-05-13T16:52:58.319Z,46.9
2019-05-13T16:58:01.754Z,47.3
2019-05-13T17:03:02.502Z,47.6
2019-05-13T17:08:02.786Z,47.7
2019-05-13T17:13:03.174Z,47.9
2019-05-13T17:18:11.181Z,48
2019-05-13T17:23:12.661Z,48
2019-05-13T17:28:13.522Z,48.1
2019-05-13T17:33:14.869Z,48.1
2019-05-13T17:38:15.201Z,48.1
2019-05-13T17:43:15.682Z,48.3
2019-05-13T17:48:26.491Z,48.3
2019-05-13T17:53:32.220Z,48.2
2019-05-13T17:58:32.889Z,48.3
2019-05-13T18:03:33.962Z,48.3
2019-05-13T18:08:34.599Z,48.3
2019-05-13T18:13:34.901Z,48.3
2019-05-13T18:18:42.513Z,48.3
2019-05-13T18:23:44.483Z,48.4
2019-05-13T18:28:44.788Z,48.4
2019-05-13T18:33:45.147Z,48.3
2019-05-13T18:38:45.724Z,48.3
2019-05-13T18:43:46.042Z,48.3
2019-05-13T18:48:58.479Z,48.3
2019-05-13T18:54:01.240Z,48.4
2019-05-13T18:59:02.976Z,48.4
2019-05-13T19:04:03.374Z,48.3
2019-05-13T19:09:03.715Z,48.3
2019-05-13T19:14:04.059Z,48.4
2019-05-13T19:19:12.160Z,48.4
2019-05-13T19:24:13.634Z,48.3
2019-05-13T19:29:13.958Z,48.3
2019-05-13T19:34:14.611Z,48.3
2019-05-13T19:39:14.895Z,48.3
2019-05-13T19:44:15.932Z,48.1
2019-05-13T19:49:28.490Z,47.7
2019-05-13T19:59:35.379Z,47.6
2019-05-13T20:04:35.658Z,47.6
2019-05-13T20:09:35.901Z,47.5
2019-05-13T20:14:36.165Z,47.4
2019-05-13T20:19:47.352Z,47.4
2019-05-13T20:24:51.384Z,47.3
2019-05-13T20:29:51.887Z,47.2
2019-05-13T20:34:52.158Z,47.2
2019-05-13T20:39:52.404Z,47.2
2019-05-13T20:44:52.633Z,47.1
2019-05-13T20:50:01.280Z,47.1
2019-05-13T20:55:02.764Z,47
2019-05-13T21:00:02.999Z,47
2019-05-13T21:05:03.281Z,46.9
2019-05-13T21:10:03.556Z,46.9
2019-05-13T21:15:03.824Z,46.8
2019-05-13T21:20:17.885Z,46.7
2019-05-13T21:25:19.082Z,46.7
2019-05-13T21:30:19.352Z,46.7
2019-05-13T21:35:21.176Z,46.6
2019-05-13T21:40:21.836Z,46.6
2019-05-13T21:45:22.912Z,46.5
2019-05-13T21:50:32.916Z,46.4
2019-05-13T21:55:34.644Z,46.4
2019-05-13T22:00:36.106Z,46.3
2019-05-13T22:05:36.346Z,46.2
2019-05-13T22:10:36.600Z,46.2
2019-05-13T22:15:36.858Z,46.2
2019-05-13T22:20:47.166Z,46.1
2019-05-13T22:25:51.878Z,46.1
2019-05-13T22:30:52.277Z,46
2019-05-13T22:35:52.527Z,45.9
2019-05-13T22:40:52.777Z,45.9
2019-05-13T22:45:53.008Z,45.8
2019-05-13T22:50:53.263Z,45.8
2019-05-13T22:55:53.487Z,45.7
2019-05-13T23:00:53.707Z,45.6
2019-05-13T23:05:53.942Z,45.6
2019-05-13T23:10:54.203Z,45.5
2019-05-13T23:15:55.243Z,45.5
2019-05-13T23:20:55.712Z,45.4
2019-05-13T23:25:56.973Z,45.4
2019-05-13T23:30:57.998Z,45.3
2019-05-13T23:35:58.230Z,45.2
2019-05-13T23:40:58.449Z,45.2
2019-05-13T23:46:01.017Z,45.1
2019-05-13T23:51:01.502Z,45.1
2019-05-13T23:56:02.108Z,45
